Terminal Aerodrome Forecast
Issued by NWS Northern Indiana

Home | Current Version | Previous Version | Text Only | Print | Product List | Glossary On
Versions: 1 2 3 4 5 6 7 8 9 10 11 12 13 14 15 16 17
000
FTUS43 KIWX 031100
TAFFWA
TAF
KFWA 031138Z 0312/0412 12007KT P6SM -FZRASNPL OVC060
      TEMPO 0312/0314 4SM -FZRASNPL
     FM031400 13012KT 5SM -FZRAPL OVC040
     FM031600 17015KT 3SM -FZRA BR OVC012 WS020/20035KT
     FM031900 21016G23KT 2SM -RA BR OVC015 WS020/23050KT
     FM040300 27013G18KT P6SM -SHSN OVC012=

USA.gov is the U.S. government's official web portal to all federal, state and local government web resources and services.